sensor_id;sensor_type;location;lat;lon;timestamp;temperature;humidity
26224;DHT22;14820;48.682;8.890;2023-10-09T00:02:02;11.70;99.90
26224;DHT22;14820;48.682;8.890;2023-10-09T00:04:31;11.60;99.90
26224;DHT22;14820;48.682;8.890;2023-10-09T00:06:57;11.60;99.90
26224;DHT22;14820;48.682;8.890;2023-10-09T00:09:25;11.60;99.90
26224;DHT22;14820;48.682;8.890;2023-10-09T00:11:52;11.60;99.90
26224;DHT22;14820;48.682;8.890;2023-10-09T00:14:29;11.60;99.90
26224;DHT22;14820;48.682;8.890;2023-10-09T00:17:00;11.60;99.90
26224;DHT22;14820;48.682;8.890;2023-10-09T00:19:38;11.50;99.90
26224;DHT22;14820;48.682;8.890;2023-10-09T00:22:03;11.50;99.90
26224;DHT22;14820;48.682;8.890;2023-10-09T00:24:36;11.40;99.90
26224;DHT22;14820;48.682;8.890;2023-10-09T00:27:06;11.50;99.90
26224;DHT22;14820;48.682;8.890;2023-10-09T00:29:40;11.40;99.90
26224;DHT22;14820;48.682;8.890;2023-10-09T00:32:15;11.40;99.90
26224;DHT22;14820;48.682;8.890;2023-10-09T00:34:53;11.40;99.90
26224;DHT22;14820;48.682;8.890;2023-10-09T00:37:23;11.30;99.90
26224;DHT22;14820;48.682;8.890;2023-10-09T00:39:51;11.40;99.90
26224;DHT22;14820;48.682;8.890;2023-10-09T00:42:25;11.30;99.90
26224;DHT22;14820;48.682;8.890;2023-10-09T00:45:00;11.30;99.90
26224;DHT22;14820;48.682;8.890;2023-10-09T00:47:31;11.30;99.90
26224;DHT22;14820;48.682;8.890;2023-10-09T00:50:05;11.30;99.90
26224;DHT22;14820;48.682;8.890;2023-10-09T00:52:53;11.30;99.90
26224;DHT22;14820;48.682;8.890;2023-10-09T00:55:27;11.30;99.90
26224;DHT22;14820;48.682;8.890;2023-10-09T00:58:01;11.30;99.90
26224;DHT22;14820;48.682;8.890;2023-10-09T01:00:31;11.20;99.90
26224;DHT22;14820;48.682;8.890;2023-10-09T01:03:03;11.20;99.90
26224;DHT22;14820;48.682;8.890;2023-10-09T01:05:38;11.20;99.90
26224;DHT22;14820;48.682;8.890;2023-10-09T01:08:11;11.20;99.90
26224;DHT22;14820;48.682;8.890;2023-10-09T01:10:45;11.20;99.90
26224;DHT22;14820;48.682;8.890;2023-10-09T01:13:16;11.20;99.90
26224;DHT22;14820;48.682;8.890;2023-10-09T01:15:43;11.20;99.90
26224;DHT22;14820;48.682;8.890;2023-10-09T01:18:10;11.20;99.90
26224;DHT22;14820;48.682;8.890;2023-10-09T01:20:36;11.20;99.90
26224;DHT22;14820;48.682;8.890;2023-10-09T01:23:09;11.20;99.90
26224;DHT22;14820;48.682;8.890;2023-10-09T01:25:35;11.10;99.90
26224;DHT22;14820;48.682;8.890;2023-10-09T01:28:09;11.10;99.90
26224;DHT22;14820;48.682;8.890;2023-10-09T01:30:35;11.10;99.90
26224;DHT22;14820;48.682;8.890;2023-10-09T01:33:07;11.00;99.90
26224;DHT22;14820;48.682;8.890;2023-10-09T01:35:40;11.00;99.90
26224;DHT22;14820;48.682;8.890;2023-10-09T01:38:13;11.10;99.90
26224;DHT22;14820;48.682;8.890;2023-10-09T01:40:40;11.10;99.90
26224;DHT22;14820;48.682;8.890;2023-10-09T01:43:06;11.10;99.90
26224;DHT22;14820;48.682;8.890;2023-10-09T01:45:38;11.10;99.90
26224;DHT22;14820;48.682;8.890;2023-10-09T01:48:12;11.10;99.90
26224;DHT22;14820;48.682;8.890;2023-10-09T01:50:40;11.10;99.90
26224;DHT22;14820;48.682;8.890;2023-10-09T01:53:08;11.10;99.90
26224;DHT22;14820;48.682;8.890;2023-10-09T01:55:34;11.20;99.90
26224;DHT22;14820;48.682;8.890;2023-10-09T01:58:07;11.20;99.90
26224;DHT22;14820;48.682;8.890;2023-10-09T02:00:48;11.20;99.90
26224;DHT22;14820;48.682;8.890;2023-10-09T02:03:27;11.20;99.90
26224;DHT22;14820;48.682;8.890;2023-10-09T02:05:55;11.20;99.90
26224;DHT22;14820;48.682;8.890;2023-10-09T02:08:28;11.10;99.90
26224;DHT22;14820;48.682;8.890;2023-10-09T02:10:56;11.10;99.90
26224;DHT22;14820;48.682;8.890;2023-10-09T02:13:22;11.20;99.90
26224;DHT22;14820;48.682;8.890;2023-10-09T02:15:56;11.10;99.90
26224;DHT22;14820;48.682;8.890;2023-10-09T02:18:38;11.10;99.90
26224;DHT22;14820;48.682;8.890;2023-10-09T02:21:22;11.10;99.90
26224;DHT22;14820;48.682;8.890;2023-10-09T02:24:05;11.10;99.90
26224;DHT22;14820;48.682;8.890;2023-10-09T02:26:52;11.00;99.90
26224;DHT22;14820;48.682;8.890;2023-10-09T02:29:17;11.00;99.90
26224;DHT22;14820;48.682;8.890;2023-10-09T02:31:43;11.00;99.90
26224;DHT22;14820;48.682;8.890;2023-10-09T02:34:18;11.00;99.90
26224;DHT22;14820;48.682;8.890;2023-10-09T02:36:52;11.00;99.90
26224;DHT22;14820;48.682;8.890;2023-10-09T02:39:30;11.00;99.90
26224;DHT22;14820;48.682;8.890;2023-10-09T02:42:02;11.00;99.90
26224;DHT22;14820;48.682;8.890;2023-10-09T02:44:39;11.00;99.90
26224;DHT22;14820;48.682;8.890;2023-10-09T02:47:14;11.00;99.90
26224;DHT22;14820;48.682;8.890;2023-10-09T02:49:49;11.00;99.90
26224;DHT22;14820;48.682;8.890;2023-10-09T02:52:16;10.90;99.90
26224;DHT22;14820;48.682;8.890;2023-10-09T02:54:51;11.00;99.90
26224;DHT22;14820;48.682;8.890;2023-10-09T02:57:26;11.00;99.90
26224;DHT22;14820;48.682;8.890;2023-10-09T02:59:53;11.00;99.90
26224;DHT22;14820;48.682;8.890;2023-10-09T03:02:19;11.00;99.90
26224;DHT22;14820;48.682;8.890;2023-10-09T03:04:45;10.90;99.90
26224;DHT22;14820;48.682;8.890;2023-10-09T03:07:11;10.90;99.90
26224;DHT22;14820;48.682;8.890;2023-10-09T03:09:39;10.90;99.90
26224;DHT22;14820;48.682;8.890;2023-10-09T03:12:07;10.90;99.90
26224;DHT22;14820;48.682;8.890;2023-10-09T03:14:36;10.90;99.90
26224;DHT22;14820;48.682;8.890;2023-10-09T03:17:06;11.00;99.90
26224;DHT22;14820;48.682;8.890;2023-10-09T03:19:37;11.00;99.90
26224;DHT22;14820;48.682;8.890;2023-10-09T03:22:07;11.00;99.90
26224;DHT22;14820;48.682;8.890;2023-10-09T03:24:36;11.00;99.90
26224;DHT22;14820;48.682;8.890;2023-10-09T03:27:03;11.10;99.90
26224;DHT22;14820;48.682;8.890;2023-10-09T03:29:28;11.10;99.90
26224;DHT22;14820;48.682;8.890;2023-10-09T03:31:54;11.10;99.90
26224;DHT22;14820;48.682;8.890;2023-10-09T03:34:22;11.10;99.90
26224;DHT22;14820;48.682;8.890;2023-10-09T03:36:49;11.00;99.90
26224;DHT22;14820;48.682;8.890;2023-10-09T03:39:25;11.00;99.90
26224;DHT22;14820;48.682;8.890;2023-10-09T03:42:07;11.00;99.90
26224;DHT22;14820;48.682;8.890;2023-10-09T03:44:37;11.00;99.90
26224;DHT22;14820;48.682;8.890;2023-10-09T03:47:09;10.90;99.90
26224;DHT22;14820;48.682;8.890;2023-10-09T03:49:36;10.90;99.90
26224;DHT22;14820;48.682;8.890;2023-10-09T03:52:05;10.90;99.90
26224;DHT22;14820;48.682;8.890;2023-10-09T03:54:32;10.90;99.90
26224;DHT22;14820;48.682;8.890;2023-10-09T03:57:00;10.90;99.90
26224;DHT22;14820;48.682;8.890;2023-10-09T03:59:27;10.90;99.90
26224;DHT22;14820;48.682;8.890;2023-10-09T04:01:56;10.90;99.90
26224;DHT22;14820;48.682;8.890;2023-10-09T04:04:24;10.90;99.90
26224;DHT22;14820;48.682;8.890;2023-10-09T04:06:50;10.90;99.90
26224;DHT22;14820;48.682;8.890;2023-10-09T04:09:18;10.90;99.90
26224;DHT22;14820;48.682;8.890;2023-10-09T04:11:47;11.00;99.90
26224;DHT22;14820;48.682;8.890;2023-10-09T04:14:16;11.00;99.90
26224;DHT22;14820;48.682;8.890;2023-10-09T04:16:51;11.00;99.90
26224;DHT22;14820;48.682;8.890;2023-10-09T04:19:18;11.00;99.90
26224;DHT22;14820;48.682;8.890;2023-10-09T04:21:48;10.90;99.90
26224;DHT22;14820;48.682;8.890;2023-10-09T04:24:14;10.90;99.90
26224;DHT22;14820;48.682;8.890;2023-10-09T04:26:41;10.80;99.90
26224;DHT22;14820;48.682;8.890;2023-10-09T04:29:10;10.70;99.90
26224;DHT22;14820;48.682;8.890;2023-10-09T04:31:45;10.80;99.90
26224;DHT22;14820;48.682;8.890;2023-10-09T04:34:18;10.70;99.90
26224;DHT22;14820;48.682;8.890;2023-10-09T04:37:03;10.70;99.90
26224;DHT22;14820;48.682;8.890;2023-10-09T04:39:35;10.80;99.90
26224;DHT22;14820;48.682;8.890;2023-10-09T04:42:02;10.80;99.90
26224;DHT22;14820;48.682;8.890;2023-10-09T04:44:47;10.90;99.90
26224;DHT22;14820;48.682;8.890;2023-10-09T04:47:28;10.80;99.90
26224;DHT22;14820;48.682;8.890;2023-10-09T04:50:08;10.80;99.90
26224;DHT22;14820;48.682;8.890;2023-10-09T04:52:38;10.80;99.90
26224;DHT22;14820;48.682;8.890;2023-10-09T04:55:04;10.80;99.90
26224;DHT22;14820;48.682;8.890;2023-10-09T04:57:41;10.70;99.90
26224;DHT22;14820;48.682;8.890;2023-10-09T05:00:07;10.80;99.90
26224;DHT22;14820;48.682;8.890;2023-10-09T05:02:48;10.80;99.90
26224;DHT22;14820;48.682;8.890;2023-10-09T05:05:20;10.80;99.90
26224;DHT22;14820;48.682;8.890;2023-10-09T05:08:04;10.80;99.90
26224;DHT22;14820;48.682;8.890;2023-10-09T05:11:05;10.80;99.90
26224;DHT22;14820;48.682;8.890;2023-10-09T05:13:41;10.80;99.90
26224;DHT22;14820;48.682;8.890;2023-10-09T05:16:09;10.70;99.90
26224;DHT22;14820;48.682;8.890;2023-10-09T05:18:48;10.70;99.90
26224;DHT22;14820;48.682;8.890;2023-10-09T05:21:32;10.70;99.90
26224;DHT22;14820;48.682;8.890;2023-10-09T05:23:59;10.70;99.90
26224;DHT22;14820;48.682;8.890;2023-10-09T05:26:50;10.70;99.90
26224;DHT22;14820;48.682;8.890;2023-10-09T05:29:17;10.70;99.90
26224;DHT22;14820;48.682;8.890;2023-10-09T05:34:27;10.70;99.90
26224;DHT22;14820;48.682;8.890;2023-10-09T05:37:05;10.70;99.90
26224;DHT22;14820;48.682;8.890;2023-10-09T05:39:53;10.70;99.90
26224;DHT22;14820;48.682;8.890;2023-10-09T05:42:25;10.70;99.90
26224;DHT22;14820;48.682;8.890;2023-10-09T05:45:14;10.80;99.90
26224;DHT22;14820;48.682;8.890;2023-10-09T05:47:47;10.80;99.90
26224;DHT22;14820;48.682;8.890;2023-10-09T05:50:24;10.90;99.90
26224;DHT22;14820;48.682;8.890;2023-10-09T05:52:51;10.90;99.90
26224;DHT22;14820;48.682;8.890;2023-10-09T05:55:16;10.90;99.90
26224;DHT22;14820;48.682;8.890;2023-10-09T05:58:01;10.90;99.90
26224;DHT22;14820;48.682;8.890;2023-10-09T06:00:45;10.80;99.90
26224;DHT22;14820;48.682;8.890;2023-10-09T06:03:29;10.80;99.90
26224;DHT22;14820;48.682;8.890;2023-10-09T06:06:13;10.70;99.90
26224;DHT22;14820;48.682;8.890;2023-10-09T06:09:04;10.70;99.90
26224;DHT22;14820;48.682;8.890;2023-10-09T06:11:54;10.70;99.90
26224;DHT22;14820;48.682;8.890;2023-10-09T06:14:21;10.80;99.90
26224;DHT22;14820;48.682;8.890;2023-10-09T06:16:57;10.80;99.90
26224;DHT22;14820;48.682;8.890;2023-10-09T06:19:24;10.80;99.90
26224;DHT22;14820;48.682;8.890;2023-10-09T06:21:57;10.90;99.90
26224;DHT22;14820;48.682;8.890;2023-10-09T06:24:29;10.90;99.90
26224;DHT22;14820;48.682;8.890;2023-10-09T06:27:10;10.90;99.90
26224;DHT22;14820;48.682;8.890;2023-10-09T06:29:36;11.00;99.90
26224;DHT22;14820;48.682;8.890;2023-10-09T06:32:03;11.00;99.90
26224;DHT22;14820;48.682;8.890;2023-10-09T06:34:51;11.00;99.90
26224;DHT22;14820;48.682;8.890;2023-10-09T06:37:18;11.10;99.90
26224;DHT22;14820;48.682;8.890;2023-10-09T06:39:54;11.20;99.90
26224;DHT22;14820;48.682;8.890;2023-10-09T06:42:26;11.20;99.90
26224;DHT22;14820;48.682;8.890;2023-10-09T06:45:08;11.30;99.90
26224;DHT22;14820;48.682;8.890;2023-10-09T06:47:49;11.30;99.90
26224;DHT22;14820;48.682;8.890;2023-10-09T06:50:22;11.30;99.90
26224;DHT22;14820;48.682;8.890;2023-10-09T06:52:54;11.40;99.90
26224;DHT22;14820;48.682;8.890;2023-10-09T06:55:27;11.40;99.90
26224;DHT22;14820;48.682;8.890;2023-10-09T06:58:00;11.50;99.90
26224;DHT22;14820;48.682;8.890;2023-10-09T07:00:50;11.50;99.90
26224;DHT22;14820;48.682;8.890;2023-10-09T07:03:30;11.50;99.90
26224;DHT22;14820;48.682;8.890;2023-10-09T07:06:09;11.60;99.90
26224;DHT22;14820;48.682;8.890;2023-10-09T07:08:57;11.50;99.90
26224;DHT22;14820;48.682;8.890;2023-10-09T07:11:33;11.60;99.90
26224;DHT22;14820;48.682;8.890;2023-10-09T07:16:33;11.70;99.90
26224;DHT22;14820;48.682;8.890;2023-10-09T07:19:05;11.70;99.90
26224;DHT22;14820;48.682;8.890;2023-10-09T07:21:56;11.70;99.90
26224;DHT22;14820;48.682;8.890;2023-10-09T07:24:31;11.80;99.90
26224;DHT22;14820;48.682;8.890;2023-10-09T07:27:11;11.80;99.90
26224;DHT22;14820;48.682;8.890;2023-10-09T07:29:40;11.90;99.90
26224;DHT22;14820;48.682;8.890;2023-10-09T07:32:18;12.00;99.90
26224;DHT22;14820;48.682;8.890;2023-10-09T07:34:48;12.10;99.90
26224;DHT22;14820;48.682;8.890;2023-10-09T07:37:24;12.30;99.90
26224;DHT22;14820;48.682;8.890;2023-10-09T07:39:56;12.50;99.90
26224;DHT22;14820;48.682;8.890;2023-10-09T07:42:25;12.70;99.90
26224;DHT22;14820;48.682;8.890;2023-10-09T07:45:07;12.80;99.90
26224;DHT22;14820;48.682;8.890;2023-10-09T07:47:53;13.00;99.90
26224;DHT22;14820;48.682;8.890;2023-10-09T07:50:21;13.20;99.90
26224;DHT22;14820;48.682;8.890;2023-10-09T07:52:47;13.30;99.90
26224;DHT22;14820;48.682;8.890;2023-10-09T07:55:16;13.40;99.90
26224;DHT22;14820;48.682;8.890;2023-10-09T07:57:54;13.50;99.90
26224;DHT22;14820;48.682;8.890;2023-10-09T08:00:20;13.60;99.90
26224;DHT22;14820;48.682;8.890;2023-10-09T08:03:01;13.70;99.90
26224;DHT22;14820;48.682;8.890;2023-10-09T08:05:49;13.90;99.90
26224;DHT22;14820;48.682;8.890;2023-10-09T08:08:18;14.00;99.90
26224;DHT22;14820;48.682;8.890;2023-10-09T08:11:06;14.20;99.90
26224;DHT22;14820;48.682;8.890;2023-10-09T08:13:50;14.30;99.90
26224;DHT22;14820;48.682;8.890;2023-10-09T08:16:25;14.50;99.90
26224;DHT22;14820;48.682;8.890;2023-10-09T08:19:02;14.60;99.90
26224;DHT22;14820;48.682;8.890;2023-10-09T08:21:46;14.60;99.90
26224;DHT22;14820;48.682;8.890;2023-10-09T08:24:31;14.70;99.90
26224;DHT22;14820;48.682;8.890;2023-10-09T08:27:30;14.90;99.90
26224;DHT22;14820;48.682;8.890;2023-10-09T08:30:08;14.80;99.90
26224;DHT22;14820;48.682;8.890;2023-10-09T08:32:50;14.80;99.90
26224;DHT22;14820;48.682;8.890;2023-10-09T08:35:37;14.80;99.90
26224;DHT22;14820;48.682;8.890;2023-10-09T08:38:17;14.90;99.90
26224;DHT22;14820;48.682;8.890;2023-10-09T08:40:50;14.90;99.90
26224;DHT22;14820;48.682;8.890;2023-10-09T08:43:21;14.90;99.90
26224;DHT22;14820;48.682;8.890;2023-10-09T08:45:48;14.90;99.90
26224;DHT22;14820;48.682;8.890;2023-10-09T08:48:14;14.90;99.90
26224;DHT22;14820;48.682;8.890;2023-10-09T08:50:54;14.90;99.90
26224;DHT22;14820;48.682;8.890;2023-10-09T08:53:21;14.90;99.90
26224;DHT22;14820;48.682;8.890;2023-10-09T08:55:47;15.00;99.90
26224;DHT22;14820;48.682;8.890;2023-10-09T08:58:16;15.10;99.90
26224;DHT22;14820;48.682;8.890;2023-10-09T09:01:18;15.10;99.90
26224;DHT22;14820;48.682;8.890;2023-10-09T09:03:47;15.20;99.90
26224;DHT22;14820;48.682;8.890;2023-10-09T09:06:13;15.10;99.90
26224;DHT22;14820;48.682;8.890;2023-10-09T09:08:40;15.20;99.90
26224;DHT22;14820;48.682;8.890;2023-10-09T09:11:24;15.20;99.90
26224;DHT22;14820;48.682;8.890;2023-10-09T09:16:31;15.40;99.90
26224;DHT22;14820;48.682;8.890;2023-10-09T09:19:03;15.50;99.90
26224;DHT22;14820;48.682;8.890;2023-10-09T09:21:39;15.60;99.90
26224;DHT22;14820;48.682;8.890;2023-10-09T09:24:07;15.60;99.90
26224;DHT22;14820;48.682;8.890;2023-10-09T09:26:43;13.50;99.90
26224;DHT22;14820;48.682;8.890;2023-10-09T09:29:15;15.70;99.90
26224;DHT22;14820;48.682;8.890;2023-10-09T09:31:55;15.80;99.90
26224;DHT22;14820;48.682;8.890;2023-10-09T09:34:23;15.90;99.90
26224;DHT22;14820;48.682;8.890;2023-10-09T09:39:31;16.30;99.90
26224;DHT22;14820;48.682;8.890;2023-10-09T09:42:00;16.30;99.90
26224;DHT22;14820;48.682;8.890;2023-10-09T09:44:39;16.40;99.90
26224;DHT22;14820;48.682;8.890;2023-10-09T09:47:14;16.50;99.90
26224;DHT22;14820;48.682;8.890;2023-10-09T09:49:51;16.50;99.90
26224;DHT22;14820;48.682;8.890;2023-10-09T09:52:28;16.60;99.90
26224;DHT22;14820;48.682;8.890;2023-10-09T09:54:53;16.70;99.90
26224;DHT22;14820;48.682;8.890;2023-10-09T09:57:23;16.70;99.90
26224;DHT22;14820;48.682;8.890;2023-10-09T09:59:52;16.80;99.90
26224;DHT22;14820;48.682;8.890;2023-10-09T10:02:32;16.90;99.90
26224;DHT22;14820;48.682;8.890;2023-10-09T10:05:04;17.00;99.90
26224;DHT22;14820;48.682;8.890;2023-10-09T10:07:33;17.20;99.90
26224;DHT22;14820;48.682;8.890;2023-10-09T10:10:34;17.30;99.90
26224;DHT22;14820;48.682;8.890;2023-10-09T10:12:59;17.40;99.90
26224;DHT22;14820;48.682;8.890;2023-10-09T10:21:26;17.90;99.90
26224;DHT22;14820;48.682;8.890;2023-10-09T10:24:01;18.00;99.90
26224;DHT22;14820;48.682;8.890;2023-10-09T10:26:36;18.20;99.90
26224;DHT22;14820;48.682;8.890;2023-10-09T10:29:17;18.30;99.90
26224;DHT22;14820;48.682;8.890;2023-10-09T10:32:03;18.50;99.90
26224;DHT22;14820;48.682;8.890;2023-10-09T10:35:00;18.50;99.90
26224;DHT22;14820;48.682;8.890;2023-10-09T10:37:38;18.60;99.90
26224;DHT22;14820;48.682;8.890;2023-10-09T10:40:24;18.60;99.90
26224;DHT22;14820;48.682;8.890;2023-10-09T10:43:23;18.80;99.90
26224;DHT22;14820;48.682;8.890;2023-10-09T10:46:14;18.90;99.90
26224;DHT22;14820;48.682;8.890;2023-10-09T10:48:41;19.00;99.90
26224;DHT22;14820;48.682;8.890;2023-10-09T10:51:12;19.10;99.90
26224;DHT22;14820;48.682;8.890;2023-10-09T10:53:53;19.20;99.90
26224;DHT22;14820;48.682;8.890;2023-10-09T10:56:25;19.30;99.90
26224;DHT22;14820;48.682;8.890;2023-10-09T10:59:01;19.40;99.90
26224;DHT22;14820;48.682;8.890;2023-10-09T11:01:33;19.60;99.90
26224;DHT22;14820;48.682;8.890;2023-10-09T11:04:17;19.90;99.90
26224;DHT22;14820;48.682;8.890;2023-10-09T11:06:56;19.90;99.90
26224;DHT22;14820;48.682;8.890;2023-10-09T11:09:48;20.10;99.90
26224;DHT22;14820;48.682;8.890;2023-10-09T11:12:30;20.30;99.90
26224;DHT22;14820;48.682;8.890;2023-10-09T11:15:10;20.30;99.90
26224;DHT22;14820;48.682;8.890;2023-10-09T11:20:24;20.50;99.90
26224;DHT22;14820;48.682;8.890;2023-10-09T11:22:52;20.50;99.90
26224;DHT22;14820;48.682;8.890;2023-10-09T11:25:33;20.50;99.90
26224;DHT22;14820;48.682;8.890;2023-10-09T11:27:59;20.60;98.60
26224;DHT22;14820;48.682;8.890;2023-10-09T11:30:41;20.70;97.50
26224;DHT22;14820;48.682;8.890;2023-10-09T11:33:11;20.90;99.90
26224;DHT22;14820;48.682;8.890;2023-10-09T11:35:40;20.80;99.90
26224;DHT22;14820;48.682;8.890;2023-10-09T11:38:08;20.90;99.90
26224;DHT22;14820;48.682;8.890;2023-10-09T11:40:47;21.00;99.90
26224;DHT22;14820;48.682;8.890;2023-10-09T11:43:19;21.00;99.90
26224;DHT22;14820;48.682;8.890;2023-10-09T11:46:10;20.90;99.90
26224;DHT22;14820;48.682;8.890;2023-10-09T11:49:09;20.80;99.90
26224;DHT22;14820;48.682;8.890;2023-10-09T11:51:47;20.70;99.90
26224;DHT22;14820;48.682;8.890;2023-10-09T11:54:51;20.70;99.90
26224;DHT22;14820;48.682;8.890;2023-10-09T11:57:17;20.70;99.90
26224;DHT22;14820;48.682;8.890;2023-10-09T11:59:42;20.60;99.90
26224;DHT22;14820;48.682;8.890;2023-10-09T12:02:09;20.50;99.90
26224;DHT22;14820;48.682;8.890;2023-10-09T12:04:38;20.50;99.90
26224;DHT22;14820;48.682;8.890;2023-10-09T12:07:08;20.50;99.90
26224;DHT22;14820;48.682;8.890;2023-10-09T12:09:38;20.40;99.90
26224;DHT22;14820;48.682;8.890;2023-10-09T12:12:07;20.40;99.90
26224;DHT22;14820;48.682;8.890;2023-10-09T12:14:35;20.40;99.90
26224;DHT22;14820;48.682;8.890;2023-10-09T12:17:04;20.40;99.90
26224;DHT22;14820;48.682;8.890;2023-10-09T12:19:39;20.40;99.90
26224;DHT22;14820;48.682;8.890;2023-10-09T12:22:08;20.40;99.90
26224;DHT22;14820;48.682;8.890;2023-10-09T12:24:42;20.40;99.90
26224;DHT22;14820;48.682;8.890;2023-10-09T12:27:11;20.50;99.90
26224;DHT22;14820;48.682;8.890;2023-10-09T12:29:37;20.60;99.90
26224;DHT22;14820;48.682;8.890;2023-10-09T12:32:03;20.60;99.90
26224;DHT22;14820;48.682;8.890;2023-10-09T12:34:30;20.60;99.90
26224;DHT22;14820;48.682;8.890;2023-10-09T12:36:57;20.80;99.90
26224;DHT22;14820;48.682;8.890;2023-10-09T12:39:26;20.90;99.90
26224;DHT22;14820;48.682;8.890;2023-10-09T12:41:58;21.00;99.90
26224;DHT22;14820;48.682;8.890;2023-10-09T12:49:30;21.70;99.90
26224;DHT22;14820;48.682;8.890;2023-10-09T12:51:55;21.90;93.40
26224;DHT22;14820;48.682;8.890;2023-10-09T12:54:27;22.00;93.90
26224;DHT22;14820;48.682;8.890;2023-10-09T12:56:54;22.10;94.30
26224;DHT22;14820;48.682;8.890;2023-10-09T12:59:20;22.30;92.60
26224;DHT22;14820;48.682;8.890;2023-10-09T13:01:47;22.30;92.90
26224;DHT22;14820;48.682;8.890;2023-10-09T13:04:19;22.40;92.80
26224;DHT22;14820;48.682;8.890;2023-10-09T13:06:48;22.50;91.90
26224;DHT22;14820;48.682;8.890;2023-10-09T13:09:17;22.50;91.90
26224;DHT22;14820;48.682;8.890;2023-10-09T13:12:06;22.60;90.90
26224;DHT22;14820;48.682;8.890;2023-10-09T13:14:43;22.70;87.60
26224;DHT22;14820;48.682;8.890;2023-10-09T13:17:09;22.90;82.00
26224;DHT22;14820;48.682;8.890;2023-10-09T13:19:35;22.90;83.50
26224;DHT22;14820;48.682;8.890;2023-10-09T13:22:01;23.00;82.20
26224;DHT22;14820;48.682;8.890;2023-10-09T13:24:29;23.20;79.30
26224;DHT22;14820;48.682;8.890;2023-10-09T13:26:56;23.30;78.60
26224;DHT22;14820;48.682;8.890;2023-10-09T13:29:24;23.40;78.00
26224;DHT22;14820;48.682;8.890;2023-10-09T13:31:49;23.30;78.10
26224;DHT22;14820;48.682;8.890;2023-10-09T13:34:18;23.30;79.30
26224;DHT22;14820;48.682;8.890;2023-10-09T13:36:44;23.30;78.30
26224;DHT22;14820;48.682;8.890;2023-10-09T13:39:19;23.30;72.10
26224;DHT22;14820;48.682;8.890;2023-10-09T13:41:54;23.20;73.20
26224;DHT22;14820;48.682;8.890;2023-10-09T13:44:27;23.20;72.50
26224;DHT22;14820;48.682;8.890;2023-10-09T13:47:00;23.10;73.00
26224;DHT22;14820;48.682;8.890;2023-10-09T13:49:34;23.10;71.40
26224;DHT22;14820;48.682;8.890;2023-10-09T13:52:03;23.10;71.20
26224;DHT22;14820;48.682;8.890;2023-10-09T13:54:29;23.20;70.90
26224;DHT22;14820;48.682;8.890;2023-10-09T13:57:03;23.10;71.00
26224;DHT22;14820;48.682;8.890;2023-10-09T13:59:30;23.20;70.90
26224;DHT22;14820;48.682;8.890;2023-10-09T14:01:56;23.20;71.00
26224;DHT22;14820;48.682;8.890;2023-10-09T14:04:24;23.20;71.70
26224;DHT22;14820;48.682;8.890;2023-10-09T14:06:50;23.30;71.40
26224;DHT22;14820;48.682;8.890;2023-10-09T14:09:27;23.50;69.60
26224;DHT22;14820;48.682;8.890;2023-10-09T14:11:57;23.70;69.70
26224;DHT22;14820;48.682;8.890;2023-10-09T14:14:40;23.60;69.70
26224;DHT22;14820;48.682;8.890;2023-10-09T14:17:15;23.70;69.30
26224;DHT22;14820;48.682;8.890;2023-10-09T14:19:47;23.70;70.00
26224;DHT22;14820;48.682;8.890;2023-10-09T14:22:16;23.90;68.40
26224;DHT22;14820;48.682;8.890;2023-10-09T14:24:43;23.90;68.30
26224;DHT22;14820;48.682;8.890;2023-10-09T14:27:11;23.90;67.00
26224;DHT22;14820;48.682;8.890;2023-10-09T14:29:46;23.80;67.90
26224;DHT22;14820;48.682;8.890;2023-10-09T14:32:12;23.70;66.90
26224;DHT22;14820;48.682;8.890;2023-10-09T14:34:39;23.70;67.60
26224;DHT22;14820;48.682;8.890;2023-10-09T14:37:11;23.60;70.50
26224;DHT22;14820;48.682;8.890;2023-10-09T14:39:38;23.60;72.10
26224;DHT22;14820;48.682;8.890;2023-10-09T14:42:05;23.60;73.20
26224;DHT22;14820;48.682;8.890;2023-10-09T14:44:37;23.50;73.50
26224;DHT22;14820;48.682;8.890;2023-10-09T14:47:06;23.50;73.50
26224;DHT22;14820;48.682;8.890;2023-10-09T14:49:35;23.40;72.90
26224;DHT22;14820;48.682;8.890;2023-10-09T14:52:05;23.40;71.80
26224;DHT22;14820;48.682;8.890;2023-10-09T14:54:35;23.50;72.70
26224;DHT22;14820;48.682;8.890;2023-10-09T14:57:00;23.50;71.70
26224;DHT22;14820;48.682;8.890;2023-10-09T14:59:26;23.50;72.90
26224;DHT22;14820;48.682;8.890;2023-10-09T15:01:52;23.50;72.80
26224;DHT22;14820;48.682;8.890;2023-10-09T15:04:19;23.50;72.80
26224;DHT22;14820;48.682;8.890;2023-10-09T15:06:48;23.50;73.30
26224;DHT22;14820;48.682;8.890;2023-10-09T15:09:15;23.50;71.80
26224;DHT22;14820;48.682;8.890;2023-10-09T15:11:54;23.40;73.10
26224;DHT22;14820;48.682;8.890;2023-10-09T15:14:20;23.40;69.80
26224;DHT22;14820;48.682;8.890;2023-10-09T15:16:46;23.40;70.40
26224;DHT22;14820;48.682;8.890;2023-10-09T15:19:13;23.40;69.80
26224;DHT22;14820;48.682;8.890;2023-10-09T15:21:40;23.30;70.10
26224;DHT22;14820;48.682;8.890;2023-10-09T15:24:15;23.20;69.80
26224;DHT22;14820;48.682;8.890;2023-10-09T15:26:45;23.20;70.90
26224;DHT22;14820;48.682;8.890;2023-10-09T15:29:18;23.10;72.00
26224;DHT22;14820;48.682;8.890;2023-10-09T15:31:51;23.00;72.70
26224;DHT22;14820;48.682;8.890;2023-10-09T15:34:17;23.00;72.50
26224;DHT22;14820;48.682;8.890;2023-10-09T15:36:45;22.90;73.80
26224;DHT22;14820;48.682;8.890;2023-10-09T15:39:13;22.90;74.50
26224;DHT22;14820;48.682;8.890;2023-10-09T15:41:39;22.80;74.80
26224;DHT22;14820;48.682;8.890;2023-10-09T15:44:05;22.80;75.80
26224;DHT22;14820;48.682;8.890;2023-10-09T15:46:31;22.70;77.20
26224;DHT22;14820;48.682;8.890;2023-10-09T15:49:00;22.60;77.80
26224;DHT22;14820;48.682;8.890;2023-10-09T15:51:27;22.50;78.80
26224;DHT22;14820;48.682;8.890;2023-10-09T15:53:53;22.50;79.50
26224;DHT22;14820;48.682;8.890;2023-10-09T15:56:18;22.40;80.00
26224;DHT22;14820;48.682;8.890;2023-10-09T15:58:46;22.30;80.70
26224;DHT22;14820;48.682;8.890;2023-10-09T16:01:13;22.30;82.30
26224;DHT22;14820;48.682;8.890;2023-10-09T16:03:42;22.20;82.80
26224;DHT22;14820;48.682;8.890;2023-10-09T16:06:09;22.10;83.50
26224;DHT22;14820;48.682;8.890;2023-10-09T16:08:40;22.10;83.70
26224;DHT22;14820;48.682;8.890;2023-10-09T16:11:08;22.00;84.10
26224;DHT22;14820;48.682;8.890;2023-10-09T16:13:34;22.00;84.70
26224;DHT22;14820;48.682;8.890;2023-10-09T16:16:00;21.90;85.20
26224;DHT22;14820;48.682;8.890;2023-10-09T16:18:27;21.80;85.20
26224;DHT22;14820;48.682;8.890;2023-10-09T16:20:55;21.80;85.60
26224;DHT22;14820;48.682;8.890;2023-10-09T16:23:21;21.70;86.10
26224;DHT22;14820;48.682;8.890;2023-10-09T16:25:48;21.60;86.50
26224;DHT22;14820;48.682;8.890;2023-10-09T16:28:14;21.50;86.80
26224;DHT22;14820;48.682;8.890;2023-10-09T16:30:42;21.40;87.00